Bookmark and Share
Track history (hours):
 

Westview Chinook

Last reported at 2014-Apr-20 15:33 UTC. Time now 2014-Apr-20 16:03 UTC.
Position N 49°13' W 122°54'.

Length 16 m; draft 3.5 m.

Type: Towing. MMSI: 316005622.

NotesDate/timePositionNaut miles runAvg speedWind from/ knotsBaromVisibWave heightAir tempDewpointWater temp
2014-Apr-20 15:33N 49°13' W 122°54'0 0.0
2014-Apr-20 14:33N 49°13' W 122°54'0 0.0
2014-Apr-20 13:33N 49°13' W 122°54'0 0.0
2014-Apr-20 12:33N 49°13' W 122°54'6 5.9
2014-Apr-20 11:34N 49°12' W 123°03'2 2.0
2014-Apr-20 10:34N 49°12' W 123°06'5 5.1
2014-Apr-20 09:34N 49°14' W 123°13'5 4.6
2014-Apr-20 08:34N 49°18' W 123°15'6 6.3
2014-Apr-20 07:34N 49°19' W 123°06'0 0.0
2014-Apr-20 06:34N 49°18' W 123°06'8 7.7
2014-Apr-20 05:33N 49°16' W 123°17'8 8.3
2014-Apr-20 04:34N 49°12' W 123°06'7 6.9
2014-Apr-20 03:33N 49°12' W 122°55'2 2.1
2014-Apr-20 02:34N 49°10' W 122°56'5 4.7
2014-Apr-20 01:34N 49°08' W 123°03'4 4.3
2014-Apr-20 00:34N 49°07' W 123°09'4 4.1
2014-Apr-19 23:33N 49°07' W 123°15'3 3.4
2014-Apr-19 22:34N 49°06' W 123°20'4 4.4
2014-Apr-19 21:34N 49°08' W 123°26'5 5.2
2014-Apr-19 20:34N 49°10' W 123°33'6 5.6
2014-Apr-19 19:33N 49°11' W 123°41'6 5.8
2014-Apr-19 18:33N 49°13' W 123°50'5 4.6
2014-Apr-19 17:34N 49°09' W 123°53'7 6.8
2014-Apr-19 16:34N 49°12' W 123°44'1010.0
2014-Apr-19 15:34N 49°09' W 123°30'10 9.8
2014-Apr-19 14:34N 49°08' W 123°15'10 9.5
2014-Apr-19 13:34N 49°09' W 123°01'0 0.2
2014-Apr-19 12:34N 49°09' W 123°00'0 0.0
2014-Apr-19 11:33N 49°09' W 123°00'2 2.0
2014-Apr-19 10:33N 49°08' W 123°03'7 6.7
2014-Apr-19 09:33N 49°08' W 123°13'6 6.0
2014-Apr-19 08:33N 49°02' W 123°16'5 4.6
2014-Apr-19 07:33N 49°01' W 123°09'0 0.2
2014-Apr-19 06:33N 49°01' W 123°09'1 0.8
2014-Apr-19 05:33N 49°01' W 123°09'1 0.6
2014-Apr-19 04:33N 49°01' W 123°09'1 0.6
2014-Apr-19 03:33N 49°01' W 123°09'0 0.0
2014-Apr-19 02:33N 49°01' W 123°09'0 0.0
2014-Apr-19 01:33N 49°01' W 123°09'0 0.0
2014-Apr-19 00:33N 49°01' W 123°09'0 0.0
2014-Apr-18 23:33N 49°01' W 123°09'6 5.8
2014-Apr-18 22:33N 49°03' W 123°17'6 5.5
2014-Apr-18 21:33N 49°07' W 123°11'5 5.2
2014-Apr-18 20:33N 49°08' W 123°04'4 4.2
2014-Apr-18 19:33N 49°09' W 122°57'7 6.7
2014-Apr-18 18:33N 49°13' W 122°49'4 3.6
2014-Apr-18 17:33N 49°15' W 122°44'2 2.0
2014-Apr-18 16:33N 49°13' W 122°44'2 1.5
2014-Apr-18 15:33N 49°11' W 122°43'7 6.9
2014-Apr-18 14:33N 49°12' W 122°54'5 5.2
2014-Apr-18 13:33N 49°09' W 123°00'1 0.8
2014-Apr-18 12:33N 49°09' W 123°02'8 7.6
2014-Apr-18 11:33N 49°08' W 123°13'6 5.7
2014-Apr-18 10:33N 49°02' W 123°16'4 4.4
2014-Apr-18 09:33N 49°01' W 123°10'0 0.2
2014-Apr-18 08:33N 49°01' W 123°10'1 1.1
2014-Apr-18 07:33N 49°01' W 123°09'0 0.0
2014-Apr-18 06:33N 49°01' W 123°09'0 0.0
2014-Apr-18 05:33N 49°01' W 123°09'0 0.0
2014-Apr-18 04:33N 49°01' W 123°09'0 0.1
2014-Apr-18 03:33N 49°01' W 123°09'7 6.9
2014-Apr-18 02:33N 49°04' W 123°18'6 5.9
2014-Apr-18 01:33N 49°07' W 123°10'3 2.7
2014-Apr-18 00:33N 49°07' W 123°06'10 8.9
2014-Apr-17 23:27N 49°12' W 122°54'5 5.3
2014-Apr-17 22:33N 49°13' W 122°47'4 3.7
2014-Apr-17 21:33N 49°11' W 122°42'4 3.7
2014-Apr-17 20:33N 49°13' W 122°46'5 4.6
2014-Apr-17 19:33N 49°13' W 122°53'1 1.0
2014-Apr-17 18:29N 49°12' W 122°54'0 0.0
2014-Apr-17 17:18N 49°12' W 122°54'0 0.0
2014-Apr-17 16:21N 49°12' W 122°54'0 0.0
2014-Apr-17 15:32N 49°12' W 122°54'3 2.9
2014-Apr-17 14:33N 49°13' W 122°50'0 0.1
2014-Apr-17 13:33N 49°13' W 122°50'0 0.0
2014-Apr-17 12:33N 49°13' W 122°50'6 6.1
2014-Apr-17 11:33N 49°11' W 122°59'3 3.0
2014-Apr-17 10:34N 49°12' W 123°03'5 5.2
2014-Apr-17 09:34N 49°12' W 122°55'2 2.0
2014-Apr-17 08:34N 49°13' W 122°53'3 3.5
2014-Apr-17 07:33N 49°13' W 122°48'0 0.4
2014-Apr-17 06:34N 49°13' W 122°47'4 3.5
2014-Apr-17 05:33N 49°13' W 122°52'2 2.0
2014-Apr-17 04:33N 49°13' W 122°50'5 5.0
2014-Apr-17 03:33N 49°11' W 122°43'2 2.2
2014-Apr-17 02:33N 49°13' W 122°44'0 0.1
2014-Apr-17 01:33N 49°13' W 122°44'4 3.9
2014-Apr-17 00:33N 49°13' W 122°50'6 6.1
2014-Apr-16 23:33N 49°09' W 122°58'4 4.4
2014-Apr-16 22:33N 49°13' W 122°53'7 7.1
2014-Apr-16 21:33N 49°11' W 122°43'0 0.2
2014-Apr-16 20:33N 49°11' W 122°43'5 5.1
2014-Apr-16 19:33N 49°13' W 122°50'5 4.6
2014-Apr-16 18:33N 49°11' W 122°55'2 1.6
2014-Apr-16 17:31N 49°12' W 122°54'0 0.0
2014-Apr-16 16:33N 49°12' W 122°54'0 0.0
2014-Apr-16 15:33N 49°12' W 122°54'0 0.0
2014-Apr-16 14:32N 49°12' W 122°54'3 2.7
2014-Apr-16 13:33N 49°13' W 122°51'0 0.3
2014-Apr-16 12:33N 49°13' W 122°50'0 0.0
2014-Apr-16 11:33N 49°13' W 122°50'0 0.0
2014-Apr-16 10:33N 49°13' W 122°50'3 3.3
2014-Apr-16 09:33N 49°12' W 122°55'0 0.3
2014-Apr-16 08:33N 49°12' W 122°54'7 7.3
2014-Apr-16 07:33N 49°13' W 122°43'6 5.7
2014-Apr-16 06:33N 49°11' W 122°35'6 6.2
2014-Apr-16 05:33N 49°13' W 122°44'2 2.0
2014-Apr-16 04:33N 49°13' W 122°47'5 4.7
2014-Apr-16 03:33N 49°12' W 122°54'6 5.5
2014-Apr-16 02:33N 49°14' W 122°46'0 0.1
2014-Apr-16 01:33N 49°14' W 122°46'3 2.7
2014-Apr-16 00:33N 49°13' W 122°50'2 2.2
2014-Apr-15 23:33N 49°13' W 122°54'7 7.0
2014-Apr-15 22:33N 49°09' W 123°02'3 2.5
2014-Apr-15 21:33N 49°07' W 123°06'0 0.2
2014-Apr-15 20:33N 49°07' W 123°05'6 5.9
2014-Apr-15 19:33N 49°10' W 122°57'1 0.8
2014-Apr-15 18:33N 49°10' W 122°56'1 0.9
2014-Apr-15 17:33N 49°09' W 122°57'7 7.4
2014-Apr-15 16:33N 49°13' W 122°47'4 4.0
2014-Apr-15 15:33N 49°11' W 122°41'5 5.1
2014-Apr-15 14:33N 49°13' W 122°48'5 2.4
2014-Apr-15 12:34N 49°12' W 122°55'7 7.4
2014-Apr-15 11:34N 49°12' W 123°07'7 6.5
2014-Apr-15 10:34N 49°15' W 123°15'2 1.9
2014-Apr-15 09:34N 49°16' W 123°17'5 5.0
2014-Apr-15 08:34N 49°21' W 123°19'4 4.4
2014-Apr-15 07:34N 49°17' W 123°19'5 5.4
2014-Apr-15 06:34N 49°11' W 123°19'5 5.0
2014-Apr-15 05:33N 49°06' W 123°19'13 6.4
2014-Apr-15 03:34N 49°09' W 123°00'2 1.6
2014-Apr-15 02:33N 49°10' W 122°58'1 0.6
2014-Apr-15 01:34N 49°10' W 122°57'0 0.0
2014-Apr-15 00:34N 49°10' W 122°57'0 0.0
2014-Apr-14 23:34N 49°10' W 122°57'0 0.0
2014-Apr-14 22:34N 49°10' W 122°57'2 2.0
2014-Apr-14 21:34N 49°11' W 122°57'6 6.0
2014-Apr-14 20:33N 49°12' W 123°07'6 6.4
2014-Apr-14 19:34N 49°15' W 123°15'4 3.6
2014-Apr-14 18:34N 49°12' W 123°18'5 5.1
2014-Apr-14 17:34N 49°07' W 123°17'9 8.8
2014-Apr-14 16:34N 49°08' W 123°04'2 2.5
2014-Apr-14 15:33N 49°09' W 123°00'0 0.0
2014-Apr-14 14:34N 49°09' W 123°00'0 0.0
2014-Apr-14 13:33N 49°09' W 123°00'0 0.0
2014-Apr-14 11:34N 49°09' W 123°00'0 0.1
2014-Apr-14 10:34N 49°09' W 123°00'2 1.8
2014-Apr-14 09:34N 49°08' W 123°03'5 5.2
2014-Apr-14 08:34N 49°07' W 123°10'5 4.5
2014-Apr-14 07:34N 49°07' W 123°17'5 5.1
2014-Apr-14 06:34N 49°08' W 123°25'6 6.3
2014-Apr-14 05:33N 49°11' W 123°33'22 3.1
2014-Apr-13 22:33N 49°18' W 123°02'0 0.0
2014-Apr-13 21:33N 49°18' W 123°02'0 0.0
2014-Apr-13 20:33N 49°18' W 123°02'0 0.0
2014-Apr-13 19:33N 49°18' W 123°02'0 0.0
2014-Apr-13 18:33N 49°18' W 123°02'0 0.0
2014-Apr-13 17:33N 49°18' W 123°02'0 0.0
2014-Apr-13 16:33N 49°18' W 123°02'0 0.0
2014-Apr-13 15:33N 49°18' W 123°02'0 0.0
2014-Apr-13 14:33N 49°18' W 123°02'0 0.0
2014-Apr-13 13:33N 49°18' W 123°02'0 0.0
2014-Apr-13 12:33N 49°18' W 123°02'0 0.0
2014-Apr-13 11:33N 49°18' W 123°02'0 0.0
2014-Apr-13 10:33N 49°18' W 123°02'0 0.0
2014-Apr-13 09:33N 49°18' W 123°02'0 0.0
2014-Apr-13 08:33N 49°18' W 123°02'0 0.0
2014-Apr-13 07:33N 49°18' W 123°02'0 0.0
2014-Apr-13 06:33N 49°18' W 123°02'0 0.0
2014-Apr-13 05:33N 49°18' W 123°02'0 0.0
2014-Apr-13 04:33N 49°18' W 123°02'0 0.0
2014-Apr-13 03:33N 49°18' W 123°02'0 0.0
2014-Apr-13 02:33N 49°18' W 123°02'0 0.0
2014-Apr-13 01:34N 49°18' W 123°02'0 0.0
2014-Apr-13 00:33N 49°18' W 123°02'0 0.0
2014-Apr-12 23:33N 49°18' W 123°02'0 0.0
2014-Apr-12 22:33N 49°18' W 123°02'0 0.0
2014-Apr-12 21:34N 49°18' W 123°02'0 0.0
2014-Apr-12 20:34N 49°18' W 123°02'0 0.0
2014-Apr-12 19:34N 49°18' W 123°02'0 0.0
2014-Apr-12 18:33N 49°18' W 123°02'0 0.0
2014-Apr-12 17:34N 49°18' W 123°02'0 0.0
2014-Apr-12 16:33N 49°18' W 123°02'0 0.0
2014-Apr-12 15:33N 49°18' W 123°02'0 0.0
2014-Apr-12 14:33N 49°18' W 123°02'0 0.0
2014-Apr-12 13:34N 49°18' W 123°02'0 0.0
2014-Apr-12 12:33N 49°18' W 123°02'0 0.0
2014-Apr-12 11:33N 49°18' W 123°02'0 0.0
2014-Apr-12 10:33N 49°18' W 123°02'0 0.0
2014-Apr-12 09:33N 49°18' W 123°02'0 0.0
2014-Apr-12 08:33N 49°18' W 123°02'0 0.0
2014-Apr-12 07:33N 49°18' W 123°02'0 0.0
2014-Apr-12 06:34N 49°18' W 123°02'0 0.0
2014-Apr-12 05:34N 49°18' W 123°02'0 0.0
2014-Apr-12 04:33N 49°18' W 123°02'0 0.0
2014-Apr-12 03:33N 49°18' W 123°02'0 0.0
2014-Apr-12 02:34N 49°18' W 123°02'0 0.0
2014-Apr-12 01:34N 49°18' W 123°02'0 0.0
2014-Apr-12 00:33N 49°18' W 123°02'0 0.0
2014-Apr-11 23:33N 49°18' W 123°02'0 0.0
2014-Apr-11 22:33N 49°18' W 123°02'0 0.0
2014-Apr-11 21:33N 49°18' W 123°02'0 0.0
2014-Apr-11 20:33N 49°18' W 123°02'0 0.0
2014-Apr-11 19:33N 49°18' W 123°02'0 0.0
2014-Apr-11 18:33N 49°18' W 123°02'0 0.1
2014-Apr-11 17:33N 49°18' W 123°02'1 0.7
2014-Apr-11 16:33N 49°18' W 123°03'5 4.8
2014-Apr-11 15:33N 49°19' W 123°10'5 5.4
2014-Apr-11 14:33N 49°15' W 123°16'7 7.3
2014-Apr-11 13:33N 49°12' W 123°06'2 1.6
2014-Apr-11 12:33N 49°12' W 123°03'0 0.0
2014-Apr-11 11:32N 49°12' W 123°03'5 5.5
2014-Apr-11 10:33N 49°12' W 122°55'3 2.9
2014-Apr-11 09:33N 49°09' W 122°58'3 3.3
2014-Apr-11 08:33N 49°12' W 122°54'5 5.2
2014-Apr-11 07:33N 49°13' W 122°47'4 4.2
2014-Apr-11 06:33N 49°11' W 122°41'6 5.6
2014-Apr-11 05:33N 49°13' W 122°49'5 4.9
2014-Apr-11 04:30N 49°12' W 122°56'6 6.2
2014-Apr-11 03:33N 49°12' W 123°05'0 0.0
2014-Apr-11 02:33N 49°12' W 123°05'1 1.2
2014-Apr-11 01:33N 49°12' W 123°07'1 0.9
2014-Apr-11 00:33N 49°12' W 123°08'0 0.0
2014-Apr-10 23:33N 49°12' W 123°08'0 0.0
2014-Apr-10 22:33N 49°12' W 123°08'9 8.8
2014-Apr-10 21:33N 49°15' W 123°21'1010.2
2014-Apr-10 20:33N 49°14' W 123°36'10 9.7
2014-Apr-10 19:33N 49°13' W 123°51'2 1.8
2014-Apr-10 18:33N 49°11' W 123°53'8 7.8
2014-Apr-10 17:33N 49°11' W 123°41'8 8.2
2014-Apr-10 16:33N 49°08' W 123°30'8 8.1
2014-Apr-10 15:34N 49°07' W 123°17'  

Dump ship's entire track history

sailing weather and tide predictions

Westview Chinook — VG3278 — position and weather